createdAt,value
2023-05-18T00:02:58.133Z,18.65
2023-05-18T00:07:15.587Z,13.05
2023-05-18T00:11:33.862Z,13.50
2023-05-18T00:15:51.222Z,12.50
2023-05-18T00:20:09.930Z,12.20
2023-05-18T00:24:28.226Z,14.27
2023-05-18T00:28:45.462Z,9.88
2023-05-18T00:33:03.128Z,11.73
2023-05-18T00:37:20.559Z,7.83
2023-05-18T00:41:38.651Z,16.05
2023-05-18T00:45:55.981Z,10.52
2023-05-18T00:50:13.606Z,17.02
2023-05-18T00:54:33.202Z,11.23
2023-05-18T00:58:53.700Z,13.18
2023-05-18T01:03:12.147Z,11.30
2023-05-18T01:12:32.891Z,15.52
2023-05-18T01:17:24.753Z,15.90
2023-05-18T01:21:50.744Z,12.25
2023-05-18T01:26:16.095Z,11.10
2023-05-18T01:30:35.895Z,17.83
2023-05-18T01:34:53.180Z,14.65
2023-05-18T01:39:10.743Z,12.43
2023-05-18T01:43:36.184Z,14.60
2023-05-18T01:47:58.776Z,17.08
2023-05-18T01:52:29.346Z,13.88
2023-05-18T01:56:48.456Z,9.82
2023-05-18T02:01:06.111Z,13.32
2023-05-18T02:05:23.325Z,10.40
2023-05-18T02:09:40.699Z,12.25
2023-05-18T02:13:57.952Z,13.25
2023-05-18T02:18:16.942Z,11.73
2023-05-18T02:22:35.333Z,11.10
2023-05-18T02:31:14.538Z,13.50
2023-05-18T02:35:32.219Z,12.65
2023-05-18T02:39:50.398Z,11.63
2023-05-18T02:44:07.975Z,16.95
2023-05-18T02:48:25.909Z,14.90
2023-05-18T02:52:45.782Z,16.77
2023-05-18T02:57:03.439Z,12.73
2023-05-18T03:01:21.063Z,12.30
2023-05-18T03:05:38.404Z,12.70
2023-05-18T03:09:55.712Z,18.20
2023-05-18T03:14:13.166Z,13.73
2023-05-18T03:18:30.682Z,14.65
2023-05-18T03:22:47.981Z,16.85
2023-05-18T03:27:05.560Z,14.32
2023-05-18T03:31:22.961Z,17.07
2023-05-18T03:35:40.953Z,16.35
2023-05-18T03:40:12.074Z,14.27
2023-05-18T03:44:29.356Z,12.90
2023-05-18T03:48:46.598Z,15.88
2023-05-18T03:53:04.154Z,13.43
2023-05-18T03:57:21.482Z,16.07
2023-05-18T04:01:42.300Z,15.75
2023-05-18T04:05:59.612Z,17.70
2023-05-18T04:10:19.698Z,13.18
2023-05-18T04:14:37.422Z,11.50
2023-05-18T04:18:55.103Z,15.70
2023-05-18T04:23:12.993Z,13.13
2023-05-18T04:27:30.833Z,16.30
2023-05-18T04:31:48.217Z,16.48
2023-05-18T04:36:06.111Z,14.10
2023-05-18T04:40:25.301Z,13.90
2023-05-18T04:44:42.535Z,17.15
2023-05-18T04:49:01.378Z,13.07
2023-05-18T04:53:18.834Z,12.93
2023-05-18T04:57:36.291Z,15.05
2023-05-18T05:01:53.999Z,11.93
2023-05-18T05:06:11.779Z,14.50
2023-05-18T05:10:29.057Z,19.33
2023-05-18T05:14:46.486Z,13.32
2023-05-18T05:19:03.814Z,16.67
2023-05-18T05:23:21.255Z,14.35
2023-05-18T05:27:38.837Z,16.92
2023-05-18T05:31:56.297Z,16.83
2023-05-18T05:36:13.664Z,14.95
2023-05-18T05:40:31.059Z,16.55
2023-05-18T05:44:48.508Z,18.67
2023-05-18T05:49:06.138Z,16.17
2023-05-18T05:53:23.642Z,15.90
2023-05-18T05:57:42.987Z,14.35
2023-05-18T06:02:00.566Z,13.40
2023-05-18T06:06:17.930Z,17.33
2023-05-18T06:10:35.577Z,16.25
2023-05-18T06:14:57.462Z,25.67
2023-05-18T06:19:14.867Z,15.60
2023-05-18T06:23:32.208Z,19.45
2023-05-18T06:27:49.763Z,14.65
2023-05-18T06:32:07.703Z,13.38
2023-05-18T06:36:25.166Z,14.57
2023-05-18T06:40:42.973Z,14.70
2023-05-18T06:45:00.532Z,15.67
2023-05-18T06:49:18.239Z,11.05
2023-05-18T06:53:35.554Z,13.00
2023-05-18T06:57:56.879Z,13.82
2023-05-18T07:02:15.136Z,16.50
2023-05-18T07:06:32.798Z,11.70
2023-05-18T07:10:50.537Z,13.20
2023-05-18T07:15:08.276Z,11.52
2023-05-18T07:19:25.958Z,11.68
2023-05-18T07:23:43.323Z,14.50
2023-05-18T07:28:00.737Z,16.00
2023-05-18T07:32:18.188Z,12.38
2023-05-18T07:36:35.846Z,14.25
2023-05-18T07:40:53.186Z,11.50
2023-05-18T07:45:12.252Z,10.35
2023-05-18T07:49:29.601Z,11.20
2023-05-18T07:53:47.953Z,12.20
2023-05-18T07:58:05.722Z,12.02
2023-05-18T08:02:26.012Z,10.55
2023-05-18T08:06:43.473Z,12.98
2023-05-18T08:11:01.418Z,10.30
2023-05-18T08:15:18.966Z,10.03
2023-05-18T08:19:37.408Z,8.80
2023-05-18T08:23:56.344Z,10.60
2023-05-18T08:28:13.835Z,7.87
2023-05-18T08:32:31.927Z,8.18
2023-05-18T08:36:49.249Z,8.23
2023-05-18T08:41:19.358Z,8.70
2023-05-18T08:45:42.824Z,10.77
2023-05-18T08:50:03.200Z,9.80
2023-05-18T08:54:22.115Z,9.60
2023-05-18T09:03:04.512Z,8.98
2023-05-18T09:07:22.966Z,10.55
2023-05-18T09:11:44.067Z,8.20
2023-05-18T09:16:01.810Z,10.10
2023-05-18T09:20:20.798Z,9.82
2023-05-18T09:24:39.386Z,5.35
2023-05-18T09:28:56.848Z,7.75
2023-05-18T09:33:22.253Z,12.40
2023-05-18T09:37:42.654Z,7.60
2023-05-18T09:42:06.420Z,8.55
2023-05-18T09:46:25.387Z,9.10
2023-05-18T09:55:05.576Z,11.65
2023-05-18T09:59:23.416Z,7.60
2023-05-18T10:03:48.034Z,11.63
2023-05-18T10:08:08.328Z,9.05
2023-05-18T10:12:25.773Z,7.90
2023-05-18T10:16:44.369Z,10.43
2023-05-18T10:21:03.899Z,8.27
2023-05-18T10:25:42.590Z,8.20
2023-05-18T10:30:03.936Z,7.07
2023-05-18T10:34:24.608Z,11.68
2023-05-18T10:38:47.668Z,9.35
2023-05-18T10:43:06.536Z,8.02
2023-05-18T10:47:29.081Z,12.43
2023-05-18T10:51:48.559Z,11.75
2023-05-18T10:56:07.934Z,9.25
2023-05-18T11:00:25.555Z,7.78
2023-05-18T11:04:48.172Z,7.70
2023-05-18T11:09:08.160Z,7.15
2023-05-18T11:13:29.776Z,8.05
2023-05-18T11:17:49.587Z,9.30
2023-05-18T11:22:12.718Z,8.90
2023-05-18T11:26:30.125Z,7.10
2023-05-18T11:30:49.930Z,10.68
2023-05-18T11:35:23.924Z,9.75
2023-05-18T11:39:51.723Z,10.15
2023-05-18T11:44:18.619Z,13.50
2023-05-18T11:48:44.645Z,9.40
2023-05-18T11:53:02.330Z,8.52
2023-05-18T11:57:40.681Z,8.40
2023-05-18T12:02:02.858Z,5.82
2023-05-18T12:06:21.294Z,6.75
2023-05-18T12:10:39.838Z,7.28
2023-05-18T12:14:59.625Z,7.75
2023-05-18T12:19:19.863Z,6.80
2023-05-18T12:23:39.917Z,7.40
2023-05-18T12:27:57.448Z,6.28
2023-05-18T12:32:18.014Z,5.57
2023-05-18T12:36:40.609Z,7.13
2023-05-18T12:40:57.923Z,7.15
2023-05-18T12:45:15.334Z,8.18
2023-05-18T12:49:40.169Z,5.15
2023-05-18T12:53:57.702Z,8.02
2023-05-18T12:58:19.910Z,5.57
2023-05-18T13:02:38.684Z,7.68
2023-05-18T13:06:58.012Z,7.88
2023-05-18T13:11:16.765Z,5.18
2023-05-18T13:19:58.106Z,5.47
2023-05-18T13:24:15.708Z,6.63
2023-05-18T13:28:33.042Z,6.80
2023-05-18T13:32:53.645Z,6.25
2023-05-18T13:37:12.203Z,6.78
2023-05-18T13:45:47.070Z,6.65
2023-05-18T13:50:08.426Z,8.80
2023-05-18T13:54:25.667Z,5.28
2023-05-18T13:58:44.670Z,9.68
2023-05-18T14:03:02.771Z,7.03
2023-05-18T14:07:20.194Z,5.80
2023-05-18T14:11:38.637Z,4.68
2023-05-18T14:15:56.077Z,6.57
2023-05-18T14:20:13.912Z,6.28
2023-05-18T14:24:31.561Z,7.97
2023-05-18T14:28:49.224Z,9.27
2023-05-18T14:33:09.501Z,6.18
2023-05-18T14:37:27.162Z,5.95
2023-05-18T14:41:44.574Z,8.52
2023-05-18T14:50:26.539Z,5.43
2023-05-18T14:54:44.032Z,6.28
2023-05-18T14:59:01.726Z,7.28
2023-05-18T15:03:22.619Z,6.57
2023-05-18T15:07:40.774Z,8.20
2023-05-18T15:11:58.095Z,6.95
2023-05-18T15:16:16.402Z,5.93
2023-05-18T15:20:37.477Z,8.50
2023-05-18T15:24:56.336Z,7.82
2023-05-18T15:29:14.015Z,6.40
2023-05-18T15:33:35.845Z,8.50
2023-05-18T15:37:53.653Z,6.45
2023-05-18T15:42:11.737Z,7.20
2023-05-18T15:46:32.302Z,6.93
2023-05-18T15:50:49.745Z,9.57
2023-05-18T15:55:07.753Z,7.70
2023-05-18T15:59:25.121Z,7.93
2023-05-18T16:03:45.384Z,8.77
2023-05-18T16:08:04.064Z,8.50
2023-05-18T16:12:47.490Z,8.45
2023-05-18T16:17:05.118Z,6.35
2023-05-18T16:21:23.503Z,7.63
2023-05-18T16:25:41.917Z,5.53
2023-05-18T16:30:02.148Z,6.05
2023-05-18T16:34:22.571Z,7.00
2023-05-18T16:38:41.829Z,6.60
2023-05-18T16:42:59.215Z,5.18
2023-05-18T16:47:16.794Z,15.45
2023-05-18T16:51:34.115Z,6.90
2023-05-18T16:55:52.835Z,6.30
2023-05-18T17:00:14.825Z,9.90
2023-05-18T17:04:32.155Z,9.05
2023-05-18T17:09:02.704Z,6.05
2023-05-18T17:13:25.852Z,9.18
2023-05-18T17:17:45.994Z,7.63
2023-05-18T17:22:03.932Z,9.38
2023-05-18T17:26:23.856Z,11.38
2023-05-18T17:30:41.374Z,8.57
2023-05-18T17:35:04.812Z,7.95
2023-05-18T17:39:23.697Z,4.75
2023-05-18T17:43:41.019Z,8.55
2023-05-18T17:47:58.447Z,5.85
2023-05-18T17:52:16.021Z,9.25
2023-05-18T17:56:37.488Z,10.60
2023-05-18T18:00:55.110Z,6.72
2023-05-18T18:05:16.656Z,9.88
2023-05-18T18:09:34.641Z,10.35
2023-05-18T18:13:52.876Z,9.25
2023-05-18T18:18:11.907Z,12.80
2023-05-18T18:22:29.209Z,6.30
2023-05-18T18:26:55.112Z,6.53
2023-05-18T18:31:12.459Z,6.43
2023-05-18T18:35:30.036Z,7.30
2023-05-18T18:39:47.739Z,7.50
2023-05-18T18:44:05.193Z,8.05
2023-05-18T18:48:31.165Z,7.60
2023-05-18T18:52:48.601Z,7.90
2023-05-18T18:57:05.964Z,6.63
2023-05-18T19:01:24.022Z,6.93
2023-05-18T19:05:41.744Z,8.38
2023-05-18T19:09:59.019Z,6.72
2023-05-18T19:14:18.745Z,6.35
2023-05-18T19:18:36.393Z,7.93
2023-05-18T19:22:53.655Z,8.52
2023-05-18T19:27:11.296Z,6.70
2023-05-18T19:31:31.728Z,8.00
2023-05-18T19:35:49.615Z,8.98
2023-05-18T19:40:07.285Z,7.22
2023-05-18T19:44:24.476Z,9.73
2023-05-18T19:48:41.821Z,10.02
2023-05-18T19:52:59.449Z,10.98
2023-05-18T19:57:19.646Z,7.63
2023-05-18T20:01:37.451Z,12.73
2023-05-18T20:05:56.178Z,5.72
2023-05-18T20:10:14.141Z,8.52
2023-05-18T20:14:33.334Z,8.10
2023-05-18T20:18:51.994Z,7.15
2023-05-18T20:23:11.230Z,11.60
2023-05-18T20:27:28.559Z,7.32
2023-05-18T20:31:46.084Z,10.23
2023-05-18T20:36:05.854Z,9.60
2023-05-18T20:40:23.816Z,9.15
2023-05-18T20:44:42.565Z,11.35
2023-05-18T20:49:00.493Z,7.95
2023-05-18T20:53:17.767Z,8.90
2023-05-18T20:57:35.203Z,7.25
2023-05-18T21:01:53.107Z,12.80
2023-05-18T21:06:10.860Z,10.10
2023-05-18T21:10:28.166Z,8.73
2023-05-18T21:14:45.365Z,8.98
2023-05-18T21:19:02.616Z,8.38
2023-05-18T21:23:19.904Z,11.73
2023-05-18T21:27:37.382Z,7.70
2023-05-18T21:31:55.227Z,14.25
2023-05-18T21:36:12.807Z,6.17
2023-05-18T21:40:30.462Z,7.32
2023-05-18T21:44:49.427Z,7.43
2023-05-18T21:49:07.865Z,7.90
2023-05-18T21:53:27.289Z,6.10
2023-05-18T21:57:44.789Z,10.10
2023-05-18T22:02:02.349Z,10.18
2023-05-18T22:06:20.073Z,6.75
2023-05-18T22:10:38.053Z,6.80
2023-05-18T22:14:55.493Z,8.83
2023-05-18T22:19:12.833Z,9.95
2023-05-18T22:23:30.295Z,10.00
2023-05-18T22:27:48.238Z,8.50
2023-05-18T22:32:06.283Z,12.33
2023-05-18T22:36:23.744Z,7.10
2023-05-18T22:40:41.055Z,6.13
2023-05-18T22:44:58.458Z,9.48
2023-05-18T22:49:15.719Z,11.10
2023-05-18T22:53:33.653Z,8.18
2023-05-18T22:57:51.518Z,7.33
2023-05-18T23:02:08.913Z,12.20
2023-05-18T23:06:27.622Z,7.45
2023-05-18T23:10:45.099Z,11.57
2023-05-18T23:15:03.902Z,7.53
2023-05-18T23:23:38.595Z,10.82
2023-05-18T23:27:55.852Z,12.13
2023-05-18T23:32:13.396Z,12.57
2023-05-18T23:36:35.246Z,10.40
2023-05-18T23:40:54.121Z,17.25
2023-05-18T23:49:29.537Z,16.13
2023-05-18T23:53:51.566Z,16.30
2023-05-18T23:58:09.403Z,12.15
